Tha Wang Pha, Thailand

9:04 PM ICT on August 01, 2014 (GMT +0700)
Nan (VTCN) Elev 659 ft | 18.77 °N, 100.76 °E | Change Station

Current weather conditions updated 1 hour ago

Scattered Clouds
Scattered Clouds
84 °F
Feels Like 91 °F
N
9
Wind Variable Wind from South

Tomorrow is forecast to be Cooler than today. Showers and thunderstorms.

Today
High -- | Low -- °F
--% Chance of Precip.
Yesterday
High -- | Low -- °F
Precip. -- in
5:53 AM 6:52 PM
Waxing Crescent, 26% visible
Pressure 29.62 in
Visibility 6.2 miles
Clouds Mostly Cloudy 2500 ft
Scattered Clouds 10000 ft
Heat Index 91 °F
Dew Point 73 °F
Humidity 70%
Rainfall 0.00 in
Snow Depth Not available.
UV 0 out of 12
Pollen Not available.
Air Quality Not available.
Flu Activity Not available.
METAR VTCN 011300Z 18008KT 9999 BKN025 SCT100 29/23 Q1003 A2962 RWY/20 INFO/K

More Conditions Fewer Conditions

Pressure 29.62 in
Visibility 6.2 miles
Clouds Mostly Cloudy 2500 ft
Scattered Clouds 10000 ft
Heat Index 91 °F
Dew Point 73 °F
Humidity 70%
Rainfall 0.00 in
Snow Depth Not available.
UV 0 out of 12
Pollen Not available.
Air Quality Not available.
Flu Activity Not available.
METAR VTCN 011300Z 18008KT 9999 BKN025 SCT100 29/23 Q1003 A2962 RWY/20 INFO/K

More Conditions Fewer Conditions

10-Day Weather Forecast

Almanac

Astronomy

Aug. 01, 2014 Rise Set
Actual Time 5:53 AM ICT 6:52 PM ICT
Civil Twilight 5:30 AM ICT 7:16 PM ICT
Nautical Twilight 5:02 AM ICT 7:43 PM ICT
Astronomical Twilight 4:34 AM ICT 8:11 PM ICT
Moon 10:01 AM ICT 10:09 PM ICT
Length of Visible Light 13h 45m
Length of Day
12h 59m
Tomorrow will be 0m 48s shorter.
Waxing Crescent, 26% of the Moon is Illuminated
Today
Waxing Crescent
Aug 3
First Quarter
Aug 10
Full
Aug 17
Last Quarter
Aug 25
New

Yesterday's Extremes

Country Highs Country Lows

Community

WunderPhotos

Upload Photos

1,739,574 photos uploaded!

Nearby

Snow Depth

Not available.

Earthquake Activity

City Distance Mag. Time & Date
No recent earthquake activity has been reported nearby.
Minimum magnitude displayed is 2.5.

Coastal Water Temperatures

Place Temperature
No Stations Reporting

Nearby Weather Stations

There are no personal weather stations in this area.